Time;durP1;ratioP1;P1;durP2;ratioP2;P2;SDS_P1;SDS_P2;PMS_P1;PMS_P2;Temp;Humidity;BMP_temperature;BMP_pressure;BME280_temperature;BME280_humidity;BME280_pressure;Samples;Min_cycle;Max_cycle;Signal;HPM_P1;HPM_P2
2020/05/01 00:00:37;;;;;;;2.1;0.7;;;;;;;;;;;;;
2020/05/01 00:03:02;;;;;;;0.7;0.4;;;;;;;;;;;;;
2020/05/01 00:05:28;;;;;;;1.1;0.5;;;;;;;;;;;;;
2020/05/01 00:07:53;;;;;;;1.2;0.5;;;;;;;;;;;;;
2020/05/01 00:10:19;;;;;;;1.2;0.4;;;;;;;;;;;;;
2020/05/01 00:12:44;;;;;;;1.9;0.5;;;;;;;;;;;;;
2020/05/01 00:15:09;;;;;;;0.9;0.4;;;;;;;;;;;;;
2020/05/01 00:17:34;;;;;;;0.9;0.5;;;;;;;;;;;;;
2020/05/01 00:19:59;;;;;;;1.6;0.7;;;;;;;;;;;;;
2020/05/01 00:22:24;;;;;;;1.5;0.8;;;;;;;;;;;;;
2020/05/01 00:24:50;;;;;;;1.1;0.8;;;;;;;;;;;;;
2020/05/01 00:27:15;;;;;;;3.9;1;;;;;;;;;;;;;
2020/05/01 00:29:40;;;;;;;1.9;0.9;;;;;;;;;;;;;
2020/05/01 00:32:05;;;;;;;1.6;1.1;;;;;;;;;;;;;
2020/05/01 00:34:30;;;;;;;0.8;0.7;;;;;;;;;;;;;
2020/05/01 00:36:55;;;;;;;0.9;0.8;;;;;;;;;;;;;
2020/05/01 00:39:20;;;;;;;1.7;0.9;;;;;;;;;;;;;
2020/05/01 00:41:45;;;;;;;1.4;0.9;;;;;;;;;;;;;
2020/05/01 00:44:11;;;;;;;1.7;1;;;;;;;;;;;;;
2020/05/01 00:46:36;;;;;;;2.1;1.3;;;;;;;;;;;;;
2020/05/01 00:49:02;;;;;;;1.6;1;;;;;;;;;;;;;
2020/05/01 00:51:26;;;;;;;1.5;1;;;;;;;;;;;;;
2020/05/01 00:53:51;;;;;;;2.1;0.7;;;;;;;;;;;;;
2020/05/01 00:56:17;;;;;;;2.1;1;;;;;;;;;;;;;
2020/05/01 00:58:42;;;;;;;1.9;0.9;;;;;;;;;;;;;
2020/05/01 01:01:12;;;;;;;1.4;0.9;;;;;;;;;;;;;
2020/05/01 01:03:32;;;;;;;1.4;0.7;;;;;;;;;;;;;
2020/05/01 01:05:58;;;;;;;1.2;0.8;;;;;;;;;;;;;
2020/05/01 01:08:23;;;;;;;1;0.7;;;;;;;;;;;;;
2020/05/01 01:10:49;;;;;;;1.5;0.7;;;;;;;;;;;;;
2020/05/01 01:13:14;;;;;;;1.1;0.8;;;;;;;;;;;;;
2020/05/01 01:15:39;;;;;;;0.9;0.6;;;;;;;;;;;;;
2020/05/01 01:18:04;;;;;;;1.1;0.7;;;;;;;;;;;;;
2020/05/01 01:20:30;;;;;;;0.7;0.6;;;;;;;;;;;;;
2020/05/01 01:22:54;;;;;;;1.1;0.7;;;;;;;;;;;;;
2020/05/01 01:25:20;;;;;;;0.9;0.7;;;;;;;;;;;;;
2020/05/01 01:27:45;;;;;;;1;0.9;;;;;;;;;;;;;
2020/05/01 01:30:10;;;;;;;1;0.9;;;;;;;;;;;;;
2020/05/01 01:32:35;;;;;;;1.3;1;;;;;;;;;;;;;
2020/05/01 01:35:02;;;;;;;3.1;1.4;;;;;;;;;;;;;
2020/05/01 01:37:26;;;;;;;1.8;1.2;;;;;;;;;;;;;
2020/05/01 01:39:51;;;;;;;1.5;1.3;;;;;;;;;;;;;
2020/05/01 01:42:16;;;;;;;2.3;1.6;;;;;;;;;;;;;
2020/05/01 01:44:42;;;;;;;2;1.7;;;;;;;;;;;;;
2020/05/01 01:47:07;;;;;;;2;1.8;;;;;;;;;;;;;
2020/05/01 01:49:32;;;;;;;2;1.4;;;;;;;;;;;;;
2020/05/01 01:51:57;;;;;;;1.7;1.3;;;;;;;;;;;;;
2020/05/01 01:54:22;;;;;;;2;1.1;;;;;;;;;;;;;
2020/05/01 01:56:47;;;;;;;1.5;1.3;;;;;;;;;;;;;
2020/05/01 01:59:13;;;;;;;1.8;1.7;;;;;;;;;;;;;
2020/05/01 02:01:38;;;;;;;2.7;2.3;;;;;;;;;;;;;
2020/05/01 02:04:03;;;;;;;3.8;2.8;;;;;;;;;;;;;
2020/05/01 02:06:28;;;;;;;2.3;2.1;;;;;;;;;;;;;
2020/05/01 02:08:53;;;;;;;2.6;2.4;;;;;;;;;;;;;
2020/05/01 02:11:18;;;;;;;2.1;1.9;;;;;;;;;;;;;
2020/05/01 02:13:44;;;;;;;3.2;2;;;;;;;;;;;;;
2020/05/01 02:16:09;;;;;;;4.2;3.8;;;;;;;;;;;;;
2020/05/01 02:18:34;;;;;;;2.5;2.2;;;;;;;;;;;;;
2020/05/01 02:20:59;;;;;;;3;2.8;;;;;;;;;;;;;
2020/05/01 02:25:15;;;;;;;4.2;3.4;;;;;;;;;;;;;
2020/05/01 02:25:58;;;;;;;7.4;3.8;;;;;;;;;;;;;
2020/05/01 02:28:36;;;;;;;9.4;3.9;;;;;;;;;;;;;
2020/05/01 02:33:22;;;;;;;21.8;3.6;;;;;;;;;;;;;
2020/05/01 02:38:09;;;;;;;12.8;2.9;;;;;;;;;;;;;
2020/05/01 02:40:40;;;;;;;16.9;3.7;;;;;;;;;;;;;
2020/05/01 02:42:51;;;;;;;5.6;3.1;;;;;;;;;;;;;
2020/05/01 02:46:02;;;;;;;3.7;2.9;;;;;;;;;;;;;
2020/05/01 02:47:51;;;;;;;2.6;2.4;;;;;;;;;;;;;
2020/05/01 02:50:14;;;;;;;4.7;2.6;;;;;;;;;;;;;
2020/05/01 02:52:40;;;;;;;3.6;2.8;;;;;;;;;;;;;
2020/05/01 02:55:03;;;;;;;3.2;2.5;;;;;;;;;;;;;
2020/05/01 02:59:48;;;;;;;4.3;2.7;;;;;;;;;;;;;
2020/05/01 03:02:11;;;;;;;5.1;3.4;;;;;;;;;;;;;
2020/05/01 03:04:33;;;;;;;4.8;3.3;;;;;;;;;;;;;
2020/05/01 03:06:58;;;;;;;3.7;2.7;;;;;;;;;;;;;
2020/05/01 03:09:26;;;;;;;3.3;2.6;;;;;;;;;;;;;
2020/05/01 03:11:51;;;;;;;2.9;2.5;;;;;;;;;;;;;
2020/05/01 03:14:17;;;;;;;1.9;1.4;;;;;;;;;;;;;
2020/05/01 03:16:42;;;;;;;2.1;1.9;;;;;;;;;;;;;
2020/05/01 03:19:07;;;;;;;2.9;2.2;;;;;;;;;;;;;
2020/05/01 03:21:32;;;;;;;1.9;1.6;;;;;;;;;;;;;
2020/05/01 03:23:57;;;;;;;2.3;1.1;;;;;;;;;;;;;
2020/05/01 03:26:22;;;;;;;2.7;1.4;;;;;;;;;;;;;
2020/05/01 03:28:47;;;;;;;1.8;1.6;;;;;;;;;;;;;
2020/05/01 03:31:13;;;;;;;4.5;2.2;;;;;;;;;;;;;
2020/05/01 03:33:38;;;;;;;3.8;2;;;;;;;;;;;;;
2020/05/01 03:36:03;;;;;;;4.5;2.3;;;;;;;;;;;;;
2020/05/01 03:38:28;;;;;;;2.4;2;;;;;;;;;;;;;
2020/05/01 03:40:53;;;;;;;3.4;1.9;;;;;;;;;;;;;
2020/05/01 03:43:18;;;;;;;2.6;1.8;;;;;;;;;;;;;
2020/05/01 03:45:44;;;;;;;2.8;1.8;;;;;;;;;;;;;
2020/05/01 03:48:09;;;;;;;3.2;1.7;;;;;;;;;;;;;
2020/05/01 03:50:34;;;;;;;2.4;1.3;;;;;;;;;;;;;
2020/05/01 03:52:59;;;;;;;2.3;1.6;;;;;;;;;;;;;
2020/05/01 03:57:50;;;;;;;2.3;2;;;;;;;;;;;;;
2020/05/01 04:02:28;;;;;;;4;3;;;;;;;7.18;89.71289;930.0709;;;;
2020/05/01 04:04:54;;;;;;;4.2;2.9;;;;;;;7.26;90.42188;930.0664;;;;
2020/05/01 04:07:19;;;;;;;3.6;2.9;;;;;;;7.25;90.57813;930.0608;;;;
2020/05/01 04:09:44;;;;;;;2.6;2.2;;;;;;;7.28;90.40234;929.9716;;;;
2020/05/01 04:12:11;;;;;;;2.4;2.1;;;;;;;7.4;90.86035;930.0097;;;;
2020/05/01 04:14:34;;;;;;;4.2;3.3;;;;;;;7.43;89.33691;930.1386;;;;
2020/05/01 04:16:59;;;;;;;4.7;3.9;;;;;;;7.44;88.90625;930.1196;;;;
2020/05/01 04:19:24;;;;;;;5.2;3.9;;;;;;;7.44;88.38672;930.1078;;;;
2020/05/01 04:21:51;;;;;;;4.8;3.8;;;;;;;7.38;89.43945;930.2108;;;;
2020/05/01 04:24:16;;;;;;;4.7;4.1;;;;;;;7.32;89.73438;930.2522;;;;
2020/05/01 04:26:49;;;;;;;4.4;4;;;;;;;7.39;89.38477;930.2592;;;;
2020/05/01 04:29:06;;;;;;;5.8;3.7;;;;;;;7.51;88.75;930.2389;;;;
2020/05/01 04:31:37;;;;;;;4.7;3.7;;;;;;;7.43;89.24512;930.2834;;;;
2020/05/01 04:33:56;;;;;;;5.8;3.7;;;;;;;7.47;89.40137;930.2964;;;;
2020/05/01 04:36:21;;;;;;;4.9;3.7;;;;;;;7.45;89.96484;930.3295;;;;
2020/05/01 04:38:54;;;;;;;4.3;3.9;;;;;;;7.48;90.35547;930.3497;;;;
2020/05/01 04:41:19;;;;;;;6.6;3.6;;;;;;;7.69;89.59375;930.3784;;;;
2020/05/01 04:43:44;;;;;;;3.4;3.1;;;;;;;7.72;89.6582;930.3525;;;;
2020/05/01 04:46:14;;;;;;;5.2;3.2;;;;;;;7.82;88.91895;930.3995;;;;
2020/05/01 04:48:42;;;;;;;2.4;2.2;;;;;;;7.85;88.89063;930.3909;;;;
2020/05/01 04:51:09;;;;;;;3.8;2.2;;;;;;;7.85;88.43848;930.4647;;;;
2020/05/01 04:53:29;;;;;;;2.9;2.5;;;;;;;7.77;88.45605;930.452;;;;
2020/05/01 04:55:50;;;;;;;4.2;3.1;;;;;;;7.78;88.36523;930.5233;;;;
2020/05/01 04:58:15;;;;;;;3.2;2.6;;;;;;;7.83;88.75098;930.5168;;;;
2020/05/01 05:00:59;;;;;;;3.3;2.9;;;;;;;7.94;88.50977;930.5342;;;;
2020/05/01 05:03:07;;;;;;;5.4;2.8;;;;;;;8.02;88.91309;930.5921;;;;
2020/05/01 05:05:32;;;;;;;3.4;2.7;;;;;;;8.07;88.25586;930.6448;;;;
2020/05/01 05:07:58;;;;;;;2.6;2.1;;;;;;;8.25;88.28027;930.5961;;;;
2020/05/01 05:10:23;;;;;;;2.2;2;;;;;;;8.33;88.11621;930.6085;;;;
2020/05/01 05:12:49;;;;;;;1.6;1.4;;;;;;;8.27;86.90918;930.6066;;;;
2020/05/01 05:15:14;;;;;;;2.6;1.5;;;;;;;8.35;86.67773;930.6169;;;;
2020/05/01 05:17:40;;;;;;;1.7;1.4;;;;;;;8.34;86.60547;930.5708;;;;
2020/05/01 05:20:05;;;;;;;3.3;1.4;;;;;;;8.28;86.63867;930.4972;;;;
2020/05/01 05:22:32;;;;;;;2.1;1.4;;;;;;;8.22;86.86621;930.5928;;;;
2020/05/01 05:24:57;;;;;;;3.3;1.5;;;;;;;8.37;87.08887;930.524;;;;
2020/05/01 05:27:22;;;;;;;1.7;1.4;;;;;;;8.49;86.28418;930.5647;;;;
2020/05/01 05:29:49;;;;;;;3.3;1.6;;;;;;;8.65;85.95117;930.5918;;;;
2020/05/01 05:32:14;;;;;;;2.6;1.5;;;;;;;8.72;85.7041;930.5381;;;;
2020/05/01 05:34:40;;;;;;;3.1;1.8;;;;;;;8.68;85.77637;930.5769;;;;
2020/05/01 05:37:05;;;;;;;2.9;1.6;;;;;;;9.04;84.9502;930.5365;;;;
2020/05/01 05:39:31;;;;;;;4.1;2.6;;;;;;;9.81;82.17188;930.4852;;;;
2020/05/01 05:41:57;;;;;;;3.8;1.8;;;;;;;11.63;76.87402;930.3901;;;;
2020/05/01 05:44:22;;;;;;;2.5;1.5;;;;;;;13.49;66.59473;930.3943;;;;
2020/05/01 05:46:48;;;;;;;2.3;1.4;;;;;;;14.47;63.125;930.4026;;;;
2020/05/01 05:49:13;;;;;;;2.9;1.5;;;;;;;14.38;63.02148;930.4133;;;;
2020/05/01 05:51:39;;;;;;;2.7;1.4;;;;;;;15.12;59.66602;930.3508;;;;
2020/05/01 05:54:04;;;;;;;1.4;1;;;;;;;15.58;58.51563;930.3928;;;;
2020/05/01 05:56:30;;;;;;;1.9;0.8;;;;;;;16.24;56.85742;930.344;;;;
2020/05/01 05:58:56;;;;;;;1.1;0.9;;;;;;;16.47;55.54395;930.3497;;;;
2020/05/01 06:01:30;;;;;;;1.3;0.7;;;;;;;16.32;55.61719;930.2996;;;;
2020/05/01 06:07:32;;;;;;;1.4;0.7;;;;;;;17.09;53.33984;930.3736;;;;
2020/05/01 06:08:42;;;;;;;1;0.8;;;;;;;17.79;51.7998;930.3627;;;;
2020/05/01 06:11:50;;;;;;;1.5;0.6;;;;;;;17.57;51.66992;930.3221;;;;
2020/05/01 06:13:48;;;;;;;1.1;0.8;;;;;;;17.28;53.58301;930.2194;;;;
2020/05/01 06:20:49;;;;;;;2.7;1.2;;;;;;;17.41;54.78223;930.2978;;;;
2020/05/01 06:23:35;;;;;;;2;1.7;;;;;;;17.56;51.43652;930.2606;;;;
2020/05/01 06:25:41;;;;;;;1.9;1;;;;;;;17.38;54.38379;930.2866;;;;
2020/05/01 06:28:10;;;;;;;1.8;1.1;;;;;;;17.84;52.60742;930.285;;;;
2020/05/01 06:33:01;;;;;;;1.7;1.1;;;;;;;18.27;49.64746;930.2647;;;;
2020/05/01 06:35:31;;;;;;;0.6;0.5;;;;;;;17.07;51.2168;930.2622;;;;
2020/05/01 06:40:49;;;;;;;1.3;0.7;;;;;;;15.09;57.36621;930.1781;;;;
2020/05/01 06:42:50;;;;;;;0.8;0.6;;;;;;;15.72;54.51367;930.1534;;;;
2020/05/01 06:45:15;;;;;;;0.8;0.4;;;;;;;16.22;51.5332;930.1719;;;;
2020/05/01 06:47:34;;;;;;;1.4;0.4;;;;;;;16.8;51.03418;930.1035;;;;
2020/05/01 06:54:44;;;;;;;0.8;0.6;;;;;;;17.36;52.5957;929.9758;;;;
2020/05/01 07:01:59;;;;;;;1.6;0.3;;;;;;;19.33;46.16699;929.9395;;;;
2020/05/01 07:04:58;;;;;;;0.5;0.3;;;;;;;20.07;44.37793;929.8175;;;;
2020/05/01 07:09:12;;;;;;;0.8;0.4;;;;;;;20.99;41.60547;929.923;;;;
2020/05/01 07:14:08;;;;;;;0.3;0.2;;;;;;;20.65;42.37988;929.8226;;;;
2020/05/01 07:17:22;;;;;;;0.4;0.2;;;;;;;19.11;42.49023;929.7994;;;;
2020/05/01 07:21:23;;;;;;;0.9;0.3;;;;;;;20.55;41.56445;929.7612;;;;
2020/05/01 07:24:29;;;;;;;0.7;0.4;;;;;;;21.04;38.6748;929.741;;;;
2020/05/01 07:26:18;;;;;;;1.6;0.5;;;;;;;21.55;39.3877;929.6972;;;;
2020/05/01 07:28:37;;;;;;;1;0.4;;;;;;;21.47;37.97461;929.7294;;;;
2020/05/01 07:31:12;;;;;;;0.9;0.4;;;;;;;21.85;40.75;929.6933;;;;
2020/05/01 07:33:29;;;;;;;1.4;0.5;;;;;;;22.59;36.1582;929.6005;;;;
2020/05/01 07:36:01;;;;;;;1.3;0.3;;;;;;;22.97;37.99805;929.644;;;;
2020/05/01 07:41:04;;;;;;;0.5;0.3;;;;;;;20.42;40.0918;929.5731;;;;
2020/05/01 07:45:38;;;;;;;1.2;0.4;;;;;;;21.86;43.13965;929.4937;;;;
2020/05/01 07:48:16;;;;;;;1.2;0.4;;;;;;;20.46;38.63672;929.4075;;;;
2020/05/01 07:50:30;;;;;;;1.2;0.4;;;;;;;20.53;39.43652;929.3542;;;;
2020/05/01 07:55:15;;;;;;;0.4;0.3;;;;;;;19.75;41.47754;929.2455;;;;
2020/05/01 07:57:44;;;;;;;0.4;0.3;;;;;;;22.46;38.05957;929.2261;;;;
2020/05/01 08:00:11;;;;;;;0.5;0.2;;;;;;;21.73;35.0332;929.1781;;;;
2020/05/01 08:03:09;;;;;;;1.1;0.4;;;;;;;22.4;35.02832;929.0608;;;;
2020/05/01 08:04:56;;;;;;;0.8;0.4;;;;;;;23.03;34.06836;928.9707;;;;
2020/05/01 08:07:27;;;;;;;0.6;0.3;;;;;;;23.23;35.19922;928.9515;;;;
2020/05/01 08:10:03;;;;;;;1.6;0.2;;;;;;;23.9;34.02832;928.9414;;;;
2020/05/01 08:12:20;;;;;;;1.3;0.3;;;;;;;23.11;32.92188;928.9199;;;;
2020/05/01 08:14:44;;;;;;;0.5;0.3;;;;;;;23.38;35.0459;928.9484;;;;
2020/05/01 08:17:25;;;;;;;0.6;0.3;;;;;;;23.55;35.45996;928.9199;;;;
2020/05/01 08:19:35;;;;;;;1;0.2;;;;;;;23.45;33.05273;928.9213;;;;
2020/05/01 08:22:16;;;;;;;0.6;0.3;;;;;;;22.88;36.19336;928.8781;;;;
2020/05/01 08:31:54;;;;;;;0.7;0.4;;;;;;;24.6;30.88672;928.8588;;;;
2020/05/01 08:34:10;;;;;;;1.5;0.5;;;;;;;24.4;29.6709;928.8367;;;;
2020/05/01 08:39:18;;;;;;;0.7;0.4;;;;;;;25.11;29.36426;928.7834;;;;
2020/05/01 08:41:38;;;;;;;1.3;0.4;;;;;;;26.15;29.03027;928.7673;;;;
2020/05/01 08:43:54;;;;;;;1.7;0.4;;;;;;;26.58;28.73828;928.7665;;;;
2020/05/01 08:51:50;;;;;;;1.2;0.4;;;;;;;23.52;31.98828;928.5589;;;;
2020/05/01 08:55:11;;;;;;;1.8;0.6;;;;;;;22.64;35.55078;928.5681;;;;
2020/05/01 08:55:55;;;;;;;1.1;0.4;;;;;;;21.28;37.05762;928.597;;;;
2020/05/01 09:01:30;;;;;;;0.9;0.4;;;;;;;20.56;37.96777;928.6039;;;;
2020/05/01 09:05:42;;;;;;;0.5;0.3;;;;;;;20.95;40.59668;928.5966;;;;
2020/05/01 09:10:31;;;;;;;1.6;0.3;;;;;;;22.28;35.49902;928.5592;;;;
2020/05/01 09:13:00;;;;;;;0.5;0.3;;;;;;;22.59;33.6709;928.5066;;;;
2020/05/01 09:16:32;;;;;;;0.6;0.4;;;;;;;22.22;34.27539;928.4977;;;;
2020/05/01 09:18:00;;;;;;;0.7;0.3;;;;;;;21.92;33.8418;928.5465;;;;
2020/05/01 09:20:13;;;;;;;0.6;0.3;;;;;;;21.68;34.85449;928.4897;;;;
2020/05/01 09:22:41;;;;;;;1.4;0.4;;;;;;;22.08;35.78809;928.4905;;;;
2020/05/01 09:30:06;;;;;;;1.4;0.4;;;;;;;21.28;38.09863;928.3937;;;;
2020/05/01 09:32:31;;;;;;;1.6;0.3;;;;;;;20.92;38.41895;928.3716;;;;
2020/05/01 09:35:00;;;;;;;1.4;0.3;;;;;;;20.75;40.19238;928.3452;;;;
2020/05/01 09:44:26;;;;;;;1.8;0.7;;;;;;;20.31;40.1875;928.241;;;;
2020/05/01 09:47:33;;;;;;;0.7;0.3;;;;;;;20.34;39.85156;928.1861;;;;
2020/05/01 09:49:26;;;;;;;0.9;0.2;;;;;;;20.26;39.27246;928.2092;;;;
2020/05/01 09:54:14;;;;;;;0.4;0.3;;;;;;;19.95;41.98535;928.0776;;;;
2020/05/01 09:56:42;;;;;;;0.3;0.2;;;;;;;19.75;41.4541;928.0073;;;;
2020/05/01 09:58:56;;;;;;;1.3;0.4;;;;;;;19.58;40.94922;928.0712;;;;
2020/05/01 10:03:59;;;;;;;1.2;0.4;;;;;;;19.95;39.17383;927.9952;;;;
2020/05/01 10:06:16;;;;;;;0.8;0.4;;;;;;;19.75;39.16895;928.062;;;;
2020/05/01 10:09:18;;;;;;;1.8;0.4;;;;;;;19.93;41.57617;927.9828;;;;
2020/05/01 10:13:32;;;;;;;0.7;0.4;;;;;;;20.61;39.4082;927.8917;;;;
2020/05/01 10:16:57;;;;;;;1.8;0.4;;;;;;;20.79;38.71191;927.9272;;;;
2020/05/01 10:18:29;;;;;;;0.7;0.4;;;;;;;20.27;38.38574;927.8748;;;;
2020/05/01 10:25:47;;;;;;;1.3;0.6;;;;;;;21.39;37.66406;927.6911;;;;
2020/05/01 10:28:11;;;;;;;0.9;0.4;;;;;;;21.12;38.74023;927.6972;;;;
2020/05/01 10:30:32;;;;;;;1.6;0.4;;;;;;;21.57;38.60352;927.6418;;;;
2020/05/01 10:33:16;;;;;;;1;0.4;;;;;;;21.75;37.91699;927.5925;;;;
2020/05/01 10:35:33;;;;;;;1.2;0.5;;;;;;;21.97;36.7998;927.5492;;;;
2020/05/01 10:45:38;;;;;;;0.9;0.3;;;;;;;22.19;37.28613;927.445;;;;
2020/05/01 10:47:49;;;;;;;0.9;0.4;;;;;;;22.58;35.65234;927.3983;;;;
2020/05/01 10:50:00;;;;;;;0.4;0.3;;;;;;;22.8;34.39063;927.3854;;;;
2020/05/01 10:55:09;;;;;;;1.1;0.5;;;;;;;22.29;35.65234;927.433;;;;
2020/05/01 10:57:26;;;;;;;1.1;0.3;;;;;;;22.16;35.60742;927.3461;;;;
2020/05/01 11:02:25;;;;;;;1.3;0.5;;;;;;;21.92;35.40039;927.2892;;;;
2020/05/01 11:07:59;;;;;;;0.4;0.2;;;;;;;21.76;31.99023;927.2583;;;;
2020/05/01 11:09:42;;;;;;;1.3;0.4;;;;;;;21.52;33.4834;927.2442;;;;
2020/05/01 11:12:22;;;;;;;0.6;0.4;;;;;;;21.26;34.68066;927.1694;;;;
2020/05/01 11:14:34;;;;;;;0.8;0.5;;;;;;;20.96;36.57422;927.1841;;;;
2020/05/01 11:17:05;;;;;;;0.9;0.4;;;;;;;20.96;37.55762;927.1791;;;;
2020/05/01 11:21:46;;;;;;;0.9;0.4;;;;;;;20.63;38.51074;927.0442;;;;
2020/05/01 11:26:49;;;;;;;0.5;0.3;;;;;;;20.19;39.61621;926.9744;;;;
2020/05/01 11:29:19;;;;;;;0.5;0.4;;;;;;;20.1;38.60449;927.0183;;;;
2020/05/01 11:32:10;;;;;;;1.6;0.4;;;;;;;20.07;38.1582;927.0016;;;;
2020/05/01 11:34:51;;;;;;;1.2;0.4;;;;;;;19.74;39.68066;927.0739;;;;
2020/05/01 11:38:52;;;;;;;0.6;0.3;;;;;;;19.72;38.04688;927.0148;;;;
2020/05/01 11:41:13;;;;;;;1.7;0.4;;;;;;;19.8;40.22363;927.0551;;;;
2020/05/01 11:51:41;;;;;;;0.7;0.3;;;;;;;19.86;39.36426;926.8694;;;;
2020/05/01 12:03:00;;;;;;;0.4;0.3;;;;;;;20.4;36.71484;926.7128;;;;
2020/05/01 12:05:26;;;;;;;0.7;0.4;;;;;;;20.17;36.9541;926.7358;;;;
2020/05/01 12:07:55;;;;;;;0.8;0.4;;;;;;;19.99;37.74219;926.6633;;;;
2020/05/01 12:10:18;;;;;;;0.4;0.3;;;;;;;20.22;39.32617;926.6189;;;;
2020/05/01 12:12:43;;;;;;;2;0.5;;;;;;;19.81;39.30176;926.6047;;;;
2020/05/01 12:15:14;;;;;;;1.5;0.8;;;;;;;19.46;38.78125;926.6704;;;;
2020/05/01 12:17:41;;;;;;;1;0.4;;;;;;;19.78;39.19434;926.6537;;;;
2020/05/01 12:20:01;;;;;;;0.6;0.3;;;;;;;19.77;38.5293;926.4531;;;;
2020/05/01 12:24:48;;;;;;;2.2;0.3;;;;;;;19.95;39.03516;926.4703;;;;
2020/05/01 12:27:14;;;;;;;1.8;0.6;;;;;;;19.92;38.57715;926.4409;;;;
2020/05/01 12:29:42;;;;;;;1.3;0.4;;;;;;;19.84;40.37793;926.405;;;;
2020/05/01 12:32:07;;;;;;;1;0.4;;;;;;;19.97;40.7041;926.3701;;;;
2020/05/01 12:34:33;;;;;;;2;1.4;;;;;;;20.06;38.92773;926.3727;;;;
2020/05/01 12:36:58;;;;;;;0.6;0.4;;;;;;;20.08;39.58398;926.4436;;;;
2020/05/01 12:39:25;;;;;;;1;0.3;;;;;;;20.18;40.33984;926.3733;;;;
2020/05/01 12:41:51;;;;;;;1;0.4;;;;;;;20.17;39.92969;926.2971;;;;
2020/05/01 12:44:18;;;;;;;1.6;0.4;;;;;;;19.89;40.57031;926.2942;;;;
2020/05/01 12:46:43;;;;;;;2.4;0.5;;;;;;;19.82;40.44629;926.1771;;;;
2020/05/01 12:49:10;;;;;;;2.8;0.4;;;;;;;19.75;42.66699;926.2263;;;;
2020/05/01 12:51:35;;;;;;;1.2;0.4;;;;;;;19.55;42.625;926.2258;;;;
2020/05/01 12:54:01;;;;;;;0.9;0.5;;;;;;;19.41;42.64453;926.2728;;;;
2020/05/01 12:56:27;;;;;;;1.7;0.4;;;;;;;19.23;44.01465;926.3209;;;;
2020/05/01 12:58:52;;;;;;;1.3;0.5;;;;;;;19.06;44.33496;926.2908;;;;
2020/05/01 13:01:31;;;;;;;1;0.5;;;;;;;18.78;44.7959;926.3508;;;;
2020/05/01 13:03:44;;;;;;;0.9;0.5;;;;;;;18.77;45.56348;926.3431;;;;
2020/05/01 13:06:11;;;;;;;1.3;0.7;;;;;;;18.74;45.82617;926.3374;;;;
2020/05/01 13:08:36;;;;;;;2.5;0.6;;;;;;;18.71;46.83594;926.2726;;;;
2020/05/01 13:11:02;;;;;;;0.8;0.4;;;;;;;18.79;45.5293;926.2173;;;;
2020/05/01 13:13:29;;;;;;;2.4;0.8;;;;;;;18.79;45.94824;926.2144;;;;
2020/05/01 13:15:56;;;;;;;1.5;0.7;;;;;;;18.72;45.86035;926.1791;;;;
2020/05/01 13:18:21;;;;;;;2.6;0.5;;;;;;;18.78;45.73828;926.2067;;;;
2020/05/01 13:20:49;;;;;;;2.2;0.5;;;;;;;18.94;45.70801;926.1316;;;;
2020/05/01 13:23:14;;;;;;;3.7;0.7;;;;;;;19;46.5752;926.1841;;;;
2020/05/01 13:25:41;;;;;;;4.7;1.4;;;;;;;18.88;46.35449;926.1445;;;;
2020/05/01 13:28:06;;;;;;;2.4;0.7;;;;;;;18.71;45.81152;926.224;;;;
2020/05/01 13:30:35;;;;;;;2.3;0.7;;;;;;;18.43;46.02734;926.2026;;;;
2020/05/01 13:33:00;;;;;;;3.1;0.6;;;;;;;18.36;47.9502;926.238;;;;
2020/05/01 13:35:25;;;;;;;1.9;0.7;;;;;;;18.3;47.14063;926.3306;;;;
2020/05/01 13:37:50;;;;;;;1.9;0.8;;;;;;;18.23;48.30664;926.4205;;;;
2020/05/01 13:40:15;;;;;;;2.9;0.7;;;;;;;18.13;48.43555;926.524;;;;
2020/05/01 13:42:41;;;;;;;2.2;0.7;;;;;;;17.93;49.28418;926.5128;;;;
2020/05/01 13:45:06;;;;;;;2.8;0.9;;;;;;;17.78;49.28027;926.608;;;;
2020/05/01 13:47:32;;;;;;;3.2;0.8;;;;;;;17.6;49.7002;926.6562;;;;
2020/05/01 13:49:58;;;;;;;3.8;0.8;;;;;;;17.31;51.61523;926.7852;;;;
2020/05/01 13:52:25;;;;;;;2.4;0.7;;;;;;;17.17;54.94922;926.8187;;;;
2020/05/01 13:54:51;;;;;;;3.1;0.8;;;;;;;16.88;55.7002;926.8281;;;;
2020/05/01 13:57:16;;;;;;;0.8;0.4;;;;;;;15.97;53.77148;926.8146;;;;
2020/05/01 13:59:41;;;;;;;1;0.4;;;;;;;15.66;53.32813;926.7752;;;;
2020/05/01 14:02:06;;;;;;;0.9;0.5;;;;;;;15.57;57.72949;926.7829;;;;
2020/05/01 14:04:31;;;;;;;1.8;0.7;;;;;;;15.58;58.46875;926.7122;;;;
2020/05/01 14:06:58;;;;;;;2.3;0.8;;;;;;;15.74;55.79883;926.6158;;;;
2020/05/01 14:09:23;;;;;;;1.6;0.6;;;;;;;15.7;60.47461;926.6345;;;;
2020/05/01 14:11:49;;;;;;;2;0.7;;;;;;;15.31;60.61621;926.6255;;;;
2020/05/01 14:14:14;;;;;;;1;0.6;;;;;;;15.46;61.65332;926.627;;;;
2020/05/01 14:16:41;;;;;;;1.8;0.7;;;;;;;15.51;64.54785;926.6224;;;;
2020/05/01 14:19:06;;;;;;;2.2;0.7;;;;;;;15.99;64.0166;926.616;;;;
2020/05/01 14:21:32;;;;;;;2.1;1;;;;;;;16.17;61.0127;926.626;;;;
2020/05/01 14:23:57;;;;;;;2.1;0.9;;;;;;;16.15;58.46484;926.7101;;;;
2020/05/01 14:26:24;;;;;;;1.5;0.9;;;;;;;16.24;62.29492;926.7364;;;;
2020/05/01 14:28:49;;;;;;;2.9;1.8;;;;;;;16.44;61.73242;926.6575;;;;
2020/05/01 14:31:15;;;;;;;2.4;0.9;;;;;;;16.9;61.17188;926.6465;;;;
2020/05/01 14:33:40;;;;;;;2.8;0.8;;;;;;;17.26;59.47168;926.6542;;;;
2020/05/01 14:36:10;;;;;;;2.3;0.8;;;;;;;17.56;56.80859;926.5859;;;;
2020/05/01 14:38:31;;;;;;;1.9;0.7;;;;;;;17.74;56.1123;926.6106;;;;
2020/05/01 14:43:22;;;;;;;2.6;0.8;;;;;;;17.94;54.74512;926.4575;;;;
2020/05/01 14:45:48;;;;;;;1.9;0.8;;;;;;;17.92;55.91406;926.4461;;;;
2020/05/01 14:48:13;;;;;;;2.5;0.9;;;;;;;17.93;55.38184;926.3953;;;;
2020/05/01 14:50:38;;;;;;;2.4;0.9;;;;;;;17.93;54.61523;926.3783;;;;
2020/05/01 14:53:04;;;;;;;2.5;0.9;;;;;;;17.83;55.00879;926.3546;;;;
2020/05/01 14:55:29;;;;;;;2.4;1.2;;;;;;;17.97;55.74707;926.2946;;;;
2020/05/01 14:57:55;;;;;;;3.7;1.2;;;;;;;18.22;54.66211;926.2491;;;;
2020/05/01 15:00:25;;;;;;;2.1;1;;;;;;;18.01;56.90039;926.356;;;;
2020/05/01 15:04:40;;;;;;;3.9;1.1;;;;;;;18.2;56.12402;926.3894;;;;
2020/05/01 15:05:16;;;;;;;4;1.1;;;;;;;18.12;55.14941;926.4028;;;;
2020/05/01 15:07:41;;;;;;;4.1;1.1;;;;;;;17.98;56.57129;926.3507;;;;
2020/05/01 15:10:07;;;;;;;2.4;1.1;;;;;;;17.8;58.05859;926.3787;;;;
2020/05/01 15:12:32;;;;;;;2.7;0.9;;;;;;;17.63;57.86328;926.3306;;;;
2020/05/01 15:14:58;;;;;;;2.5;0.8;;;;;;;17.55;57.5498;926.2537;;;;
2020/05/01 15:17:23;;;;;;;2.6;1;;;;;;;17.38;57.4707;926.2756;;;;
2020/05/01 15:19:49;;;;;;;2.7;1;;;;;;;17.16;58.36816;926.3459;;;;
2020/05/01 15:22:15;;;;;;;2.9;1.4;;;;;;;16.97;59.31641;926.3586;;;;
2020/05/01 15:24:44;;;;;;;3.5;1.2;;;;;;;16.88;58.93359;926.4822;;;;
2020/05/01 15:27:10;;;;;;;2.1;1.1;;;;;;;16.8;59.64063;926.4895;;;;
2020/05/01 15:29:35;;;;;;;4.6;1.2;;;;;;;16.73;60.10742;926.3061;;;;
2020/05/01 15:32:00;;;;;;;3.9;1.2;;;;;;;16.83;60.32813;926.2388;;;;
2020/05/01 15:34:25;;;;;;;2.3;1;;;;;;;16.96;60.90234;926.1877;;;;
2020/05/01 15:36:50;;;;;;;2.7;1;;;;;;;17.19;61.49023;926.1786;;;;
2020/05/01 15:39:48;;;;;;;1.5;0.8;;;;;;;17.29;61.75977;926.1856;;;;
2020/05/01 15:42:13;;;;;;;2.2;1.1;;;;;;;17.29;60.59863;926.2131;;;;
2020/05/01 15:44:38;;;;;;;2.5;0.9;;;;;;;17.23;60.40625;926.122;;;;
2020/05/01 15:47:04;;;;;;;3.4;0.9;;;;;;;17.07;60.24512;926.074;;;;
2020/05/01 15:49:29;;;;;;;1.5;0.8;;;;;;;16.89;61.73828;926.1145;;;;
2020/05/01 15:51:58;;;;;;;2.2;1;;;;;;;16.59;61.89355;926.1936;;;;
2020/05/01 15:54:21;;;;;;;3.2;1.1;;;;;;;16.6;62.47363;926.1372;;;;
2020/05/01 15:56:44;;;;;;;2.9;1;;;;;;;16.65;62.81543;926.1447;;;;
2020/05/01 15:59:09;;;;;;;2.9;1.1;;;;;;;16.64;63.4873;926.2053;;;;
2020/05/01 16:03:59;;;;;;;2.5;1.1;;;;;;;16.76;64.21094;926.323;;;;
2020/05/01 16:06:25;;;;;;;3;1.1;;;;;;;16.95;62.87012;926.3483;;;;
2020/05/01 16:08:50;;;;;;;2.5;1;;;;;;;17.04;63.58008;926.3244;;;;
2020/05/01 16:11:15;;;;;;;2.4;1.2;;;;;;;16.98;62.0752;926.2651;;;;
2020/05/01 16:13:40;;;;;;;2.3;1;;;;;;;16.77;62.39355;926.1979;;;;
2020/05/01 16:16:07;;;;;;;4.8;1.2;;;;;;;16.5;63.22168;926.0778;;;;
2020/05/01 16:18:32;;;;;;;2.4;1.1;;;;;;;16.34;63.07227;926.1086;;;;
2020/05/01 16:20:58;;;;;;;3.2;1.2;;;;;;;16.17;63.37207;926.1311;;;;
2020/05/01 16:23:23;;;;;;;3.2;1.2;;;;;;;15.99;63.33398;926.1278;;;;
2020/05/01 16:25:49;;;;;;;5.4;1.1;;;;;;;15.89;63.75879;926.1404;;;;
2020/05/01 16:28:14;;;;;;;2.6;1.4;;;;;;;15.91;64.37402;926.0892;;;;
2020/05/01 16:30:39;;;;;;;2;1.1;;;;;;;15.85;63.58008;926.03;;;;
2020/05/01 16:33:05;;;;;;;3.6;1.3;;;;;;;15.52;64.41113;926.205;;;;
2020/05/01 16:35:31;;;;;;;2.9;1.2;;;;;;;15.53;64.83789;926.2336;;;;
2020/05/01 16:37:56;;;;;;;2.5;0.8;;;;;;;15.44;65.09082;926.2203;;;;
2020/05/01 16:40:22;;;;;;;3.5;1.3;;;;;;;15.24;65.46484;926.3676;;;;
2020/05/01 16:42:47;;;;;;;2.5;1.2;;;;;;;15.16;65.71777;926.3711;;;;
2020/05/01 16:45:13;;;;;;;4.9;1.1;;;;;;;15.04;66.13867;926.3613;;;;
2020/05/01 16:47:39;;;;;;;2.8;1.1;;;;;;;14.95;66.52734;926.3516;;;;
2020/05/01 16:50:04;;;;;;;2.4;1;;;;;;;14.84;66.77734;926.3272;;;;
2020/05/01 16:52:29;;;;;;;3;0.9;;;;;;;14.79;67.40332;926.4467;;;;
2020/05/01 16:55:01;;;;;;;3.2;1.2;;;;;;;14.75;67.60547;926.4255;;;;
2020/05/01 16:57:26;;;;;;;3.4;1.5;;;;;;;14.48;69.49902;926.5112;;;;
2020/05/01 16:59:51;;;;;;;2.6;1.4;;;;;;;14.39;70.15137;926.5008;;;;
2020/05/01 17:02:16;;;;;;;3.4;1.3;;;;;;;14.28;71.37891;926.5659;;;;
2020/05/01 17:04:41;;;;;;;2.3;1.2;;;;;;;14.04;73.10156;926.6239;;;;
2020/05/01 17:07:06;;;;;;;2.2;1.2;;;;;;;13.94;73.97168;926.838;;;;
2020/05/01 17:09:32;;;;;;;3.1;1.3;;;;;;;13.8;74.58984;926.8727;;;;
2020/05/01 17:11:57;;;;;;;2.8;1.6;;;;;;;13.66;75.85547;926.8987;;;;
2020/05/01 17:14:25;;;;;;;4.3;1.6;;;;;;;13.53;76.60254;927.0275;;;;
2020/05/01 17:16:50;;;;;;;3.8;1.6;;;;;;;13.43;76.89551;927.0463;;;;
2020/05/01 17:19:15;;;;;;;2.9;1.4;;;;;;;13.21;77.5791;927.0413;;;;
2020/05/01 17:21:41;;;;;;;2.5;1.4;;;;;;;13.16;78.49023;927.001;;;;
2020/05/01 17:24:06;;;;;;;3.6;1.5;;;;;;;12.97;78.86816;927.1642;;;;
2020/05/01 17:26:31;;;;;;;3.5;2;;;;;;;12.64;80.40332;927.2366;;;;
2020/05/01 17:28:57;;;;;;;3.9;2.6;;;;;;;12.87;80.16016;927.2905;;;;
2020/05/01 17:31:23;;;;;;;2.8;1.5;;;;;;;12.96;79.62598;927.3136;;;;
2020/05/01 17:33:48;;;;;;;3.2;1.8;;;;;;;12.99;79.88184;927.2933;;;;
2020/05/01 17:36:13;;;;;;;3;2;;;;;;;13.03;79.80957;927.1984;;;;
2020/05/01 17:38:38;;;;;;;4.7;1.3;;;;;;;13.15;78.46582;927.209;;;;
2020/05/01 17:41:04;;;;;;;4.3;2.1;;;;;;;13.07;78.8418;927.1426;;;;
2020/05/01 17:43:29;;;;;;;3.7;1.5;;;;;;;13.02;78.9707;927.161;;;;
2020/05/01 17:45:55;;;;;;;3.1;1.3;;;;;;;13.04;78.65137;927.2054;;;;